Corpus Christi International Airport
KCRP : now visible

Airfield :











YOU CAN JOIN US ON...

 
LOGIN :

Register | Disclaimer

   EN    FR    IT 

 









Legend :    VFR   Marginal VFR   IFR   Intensive IFR   Very Intensive IFR
Visi :
Ceiling :
>= 8 km
>= 3000ft
5 to 8 km
1000 to 3000 ft
1500m to 5 km
500 to 1000 ft
800 to 1500m
200 to 500 ft
< 800m
< 200 ft
Symbols :   Thunderstorms  Fog  Heavy snow  Heavy precipitations  Wind > 20 kt







- Airport Elevation : 44 ft
- IATA code : CRP


KCRP - Corpus Christi International

CURRENT METAR :
  • 201151Z 14014KT 6SM HZ FEW009 SCT024 27/24 A2980 RMK AO2 SLP091 T02670239 10278 20267 53001

EXPIRED METARs :
  • 201051Z 14013KT 7SM FEW009 FEW013 OVC026 27/24 A2980 RMK AO2 SLP091 T02720244
  • 201044Z 14014KT 7SM FEW008 SCT013 OVC026 27/24 A2980 RMK AO2 T02720244
  • 200951Z 14014KT 9SM FEW009 OVC024 28/25 A2980 RMK AO2 SLP090 T02780250

TAF KCRP
Valid from the 20 at 12:00 until the 21 at 12:00 UTC


201125Z 2012/2112 14014KT P6SM SCT008 OVC025
TEMPO 2012/2013 4SM BR BKN008 OVC025
FM201500 15020G28KT P6SM BKN025
FM201800 15028G38KT P6SM SCT035
FM210200 15022G30KT P6SM SCT025
KZHU FIR / North America



MET'MAP, your aeronautical weather chart ! - Copyright ORBIFLY December 2007 - Disclaimer

ORBIFLY MET'MAP TEAM :

Programming & Development : Alexandra Zaïnal
Concept & Development : Baudouin d'Aumeries
Co-Development & Prog : Marc-Olivier Méhu
Technical & hardware support : Manuel Goepfert

Contact : metmap@orbifly.com




SOURCES & CREDITS :

   NOAA       Earth
Advisory